sensor_id;sensor_type;location;lat;lon;timestamp;temperature;humidity
24217;DHT22;12356;49.386;8.688;2023-02-12T00:00:54;7.50;45.80
24217;DHT22;12356;49.386;8.688;2023-02-12T00:03:24;7.60;45.60
24217;DHT22;12356;49.386;8.688;2023-02-12T00:06:00;7.50;45.50
24217;DHT22;12356;49.386;8.688;2023-02-12T00:08:31;7.50;45.30
24217;DHT22;12356;49.386;8.688;2023-02-12T00:11:12;7.50;45.30
24217;DHT22;12356;49.386;8.688;2023-02-12T00:13:43;7.50;45.60
24217;DHT22;12356;49.386;8.688;2023-02-12T00:16:16;7.60;45.70
24217;DHT22;12356;49.386;8.688;2023-02-12T00:18:49;7.60;45.50
24217;DHT22;12356;49.386;8.688;2023-02-12T00:21:21;7.60;45.70
24217;DHT22;12356;49.386;8.688;2023-02-12T00:23:52;7.60;45.80
24217;DHT22;12356;49.386;8.688;2023-02-12T00:26:23;7.50;45.70
24217;DHT22;12356;49.386;8.688;2023-02-12T00:28:54;7.50;45.60
24217;DHT22;12356;49.386;8.688;2023-02-12T00:31:27;7.50;45.90
24217;DHT22;12356;49.386;8.688;2023-02-12T00:33:58;7.50;46.20
24217;DHT22;12356;49.386;8.688;2023-02-12T00:36:30;7.50;46.60
24217;DHT22;12356;49.386;8.688;2023-02-12T00:39:01;7.50;46.40
24217;DHT22;12356;49.386;8.688;2023-02-12T00:41:32;7.50;46.70
24217;DHT22;12356;49.386;8.688;2023-02-12T00:44:02;7.50;46.60
24217;DHT22;12356;49.386;8.688;2023-02-12T00:46:33;7.50;46.80
24217;DHT22;12356;49.386;8.688;2023-02-12T00:49:03;7.50;46.50
24217;DHT22;12356;49.386;8.688;2023-02-12T00:51:34;7.50;46.20
24217;DHT22;12356;49.386;8.688;2023-02-12T00:54:05;7.50;45.70
24217;DHT22;12356;49.386;8.688;2023-02-12T00:56:35;7.50;46.00
24217;DHT22;12356;49.386;8.688;2023-02-12T00:59:06;7.50;46.30
24217;DHT22;12356;49.386;8.688;2023-02-12T01:01:37;7.50;46.40
24217;DHT22;12356;49.386;8.688;2023-02-12T01:04:07;7.50;47.00
24217;DHT22;12356;49.386;8.688;2023-02-12T01:06:38;7.40;47.20
24217;DHT22;12356;49.386;8.688;2023-02-12T01:09:08;7.50;47.40
24217;DHT22;12356;49.386;8.688;2023-02-12T01:11:39;7.50;47.20
24217;DHT22;12356;49.386;8.688;2023-02-12T01:14:10;7.40;47.20
24217;DHT22;12356;49.386;8.688;2023-02-12T01:16:40;7.40;47.70
24217;DHT22;12356;49.386;8.688;2023-02-12T01:19:11;7.40;47.70
24217;DHT22;12356;49.386;8.688;2023-02-12T01:21:42;7.50;47.80
24217;DHT22;12356;49.386;8.688;2023-02-12T01:24:13;7.40;48.00
24217;DHT22;12356;49.386;8.688;2023-02-12T01:26:43;7.40;48.10
24217;DHT22;12356;49.386;8.688;2023-02-12T01:29:14;7.40;48.10
24217;DHT22;12356;49.386;8.688;2023-02-12T01:31:44;7.40;48.70
24217;DHT22;12356;49.386;8.688;2023-02-12T01:34:15;7.40;49.10
24217;DHT22;12356;49.386;8.688;2023-02-12T01:36:45;7.40;48.80
24217;DHT22;12356;49.386;8.688;2023-02-12T01:39:16;7.40;49.20
24217;DHT22;12356;49.386;8.688;2023-02-12T01:41:46;7.40;49.10
24217;DHT22;12356;49.386;8.688;2023-02-12T01:44:21;7.40;48.90
24217;DHT22;12356;49.386;8.688;2023-02-12T01:47:00;7.40;48.90
24217;DHT22;12356;49.386;8.688;2023-02-12T01:49:38;7.40;48.60
24217;DHT22;12356;49.386;8.688;2023-02-12T01:52:12;7.40;48.10
24217;DHT22;12356;49.386;8.688;2023-02-12T01:54:43;7.50;47.90
24217;DHT22;12356;49.386;8.688;2023-02-12T01:57:15;7.60;47.80
24217;DHT22;12356;49.386;8.688;2023-02-12T01:59:48;7.50;47.00
24217;DHT22;12356;49.386;8.688;2023-02-12T02:02:21;7.50;46.70
24217;DHT22;12356;49.386;8.688;2023-02-12T02:04:56;7.50;46.70
24217;DHT22;12356;49.386;8.688;2023-02-12T02:07:28;7.50;46.60
24217;DHT22;12356;49.386;8.688;2023-02-12T02:09:59;7.50;46.60
24217;DHT22;12356;49.386;8.688;2023-02-12T02:12:31;7.60;46.60
24217;DHT22;12356;49.386;8.688;2023-02-12T02:15:20;7.50;46.50
24217;DHT22;12356;49.386;8.688;2023-02-12T02:17:58;7.50;46.50
24217;DHT22;12356;49.386;8.688;2023-02-12T02:23:48;7.50;45.70
24217;DHT22;12356;49.386;8.688;2023-02-12T02:32:29;7.40;45.20
24217;DHT22;12356;49.386;8.688;2023-02-12T02:35:13;7.40;44.80
24217;DHT22;12356;49.386;8.688;2023-02-12T02:41:14;7.40;45.20
24217;DHT22;12356;49.386;8.688;2023-02-12T02:43:49;7.40;45.30
24217;DHT22;12356;49.386;8.688;2023-02-12T02:46:27;7.50;45.80
24217;DHT22;12356;49.386;8.688;2023-02-12T02:49:04;7.50;44.80
24217;DHT22;12356;49.386;8.688;2023-02-12T02:51:44;7.50;45.30
24217;DHT22;12356;49.386;8.688;2023-02-12T02:54:36;7.40;45.20
24217;DHT22;12356;49.386;8.688;2023-02-12T02:57:13;7.40;45.40
24217;DHT22;12356;49.386;8.688;2023-02-12T02:59:54;7.40;45.20
24217;DHT22;12356;49.386;8.688;2023-02-12T03:02:30;7.50;45.20
24217;DHT22;12356;49.386;8.688;2023-02-12T03:05:12;7.50;45.30
24217;DHT22;12356;49.386;8.688;2023-02-12T03:07:48;7.50;45.30
24217;DHT22;12356;49.386;8.688;2023-02-12T03:10:24;7.40;45.40
24217;DHT22;12356;49.386;8.688;2023-02-12T03:13:14;7.40;45.90
24217;DHT22;12356;49.386;8.688;2023-02-12T03:15:59;7.50;46.50
24217;DHT22;12356;49.386;8.688;2023-02-12T03:18:43;7.40;46.20
24217;DHT22;12356;49.386;8.688;2023-02-12T03:21:25;7.40;46.80
24217;DHT22;12356;49.386;8.688;2023-02-12T03:24:44;7.30;47.00
24217;DHT22;12356;49.386;8.688;2023-02-12T03:27:09;7.30;47.10
24217;DHT22;12356;49.386;8.688;2023-02-12T03:29:40;7.30;47.30
24217;DHT22;12356;49.386;8.688;2023-02-12T03:32:32;7.30;46.70
24217;DHT22;12356;49.386;8.688;2023-02-12T03:35:17;7.40;45.50
24217;DHT22;12356;49.386;8.688;2023-02-12T03:40:42;7.40;46.00
24217;DHT22;12356;49.386;8.688;2023-02-12T03:43:28;7.40;46.00
24217;DHT22;12356;49.386;8.688;2023-02-12T03:46:10;7.40;46.00
24217;DHT22;12356;49.386;8.688;2023-02-12T03:48:54;7.40;45.60
24217;DHT22;12356;49.386;8.688;2023-02-12T03:51:33;7.50;45.70
24217;DHT22;12356;49.386;8.688;2023-02-12T03:54:07;7.50;45.60
24217;DHT22;12356;49.386;8.688;2023-02-12T03:59:09;7.50;46.20
24217;DHT22;12356;49.386;8.688;2023-02-12T04:01:40;7.40;46.30
24217;DHT22;12356;49.386;8.688;2023-02-12T04:04:11;7.50;46.70
24217;DHT22;12356;49.386;8.688;2023-02-12T04:06:43;7.40;47.00
24217;DHT22;12356;49.386;8.688;2023-02-12T04:09:14;7.40;46.90
24217;DHT22;12356;49.386;8.688;2023-02-12T04:26:17;7.50;46.00
24217;DHT22;12356;49.386;8.688;2023-02-12T04:32:30;7.50;46.00
24217;DHT22;12356;49.386;8.688;2023-02-12T04:35:04;7.50;46.00
24217;DHT22;12356;49.386;8.688;2023-02-12T04:37:48;7.50;46.20
24217;DHT22;12356;49.386;8.688;2023-02-12T04:40:20;7.50;45.90
24217;DHT22;12356;49.386;8.688;2023-02-12T04:42:52;7.50;46.10
24217;DHT22;12356;49.386;8.688;2023-02-12T04:45:26;7.50;46.80
24217;DHT22;12356;49.386;8.688;2023-02-12T04:47:58;7.40;47.00
24217;DHT22;12356;49.386;8.688;2023-02-12T04:50:40;7.40;46.80
24217;DHT22;12356;49.386;8.688;2023-02-12T04:53:11;7.40;47.20
24217;DHT22;12356;49.386;8.688;2023-02-12T04:55:42;7.40;47.40
24217;DHT22;12356;49.386;8.688;2023-02-12T04:58:13;7.40;47.00
24217;DHT22;12356;49.386;8.688;2023-02-12T05:00:43;7.40;47.30
24217;DHT22;12356;49.386;8.688;2023-02-12T05:03:14;7.40;48.00
24217;DHT22;12356;49.386;8.688;2023-02-12T05:05:44;7.40;48.20
24217;DHT22;12356;49.386;8.688;2023-02-12T05:08:15;7.40;48.00
24217;DHT22;12356;49.386;8.688;2023-02-12T05:10:45;7.40;48.10
24217;DHT22;12356;49.386;8.688;2023-02-12T05:13:16;7.40;48.90
24217;DHT22;12356;49.386;8.688;2023-02-12T05:15:46;7.40;47.80
24217;DHT22;12356;49.386;8.688;2023-02-12T05:18:17;7.40;47.50
24217;DHT22;12356;49.386;8.688;2023-02-12T05:20:58;7.40;47.20
24217;DHT22;12356;49.386;8.688;2023-02-12T05:23:31;7.40;47.30
24217;DHT22;12356;49.386;8.688;2023-02-12T05:26:13;7.40;47.40
24217;DHT22;12356;49.386;8.688;2023-02-12T05:28:44;7.40;47.60
24217;DHT22;12356;49.386;8.688;2023-02-12T05:31:17;7.30;47.60
24217;DHT22;12356;49.386;8.688;2023-02-12T05:33:48;7.30;48.10
24217;DHT22;12356;49.386;8.688;2023-02-12T05:36:22;7.30;47.40
24217;DHT22;12356;49.386;8.688;2023-02-12T05:38:57;7.30;47.40
24217;DHT22;12356;49.386;8.688;2023-02-12T05:41:28;7.30;47.50
24217;DHT22;12356;49.386;8.688;2023-02-12T05:43:58;7.30;47.80
24217;DHT22;12356;49.386;8.688;2023-02-12T05:46:29;7.30;48.00
24217;DHT22;12356;49.386;8.688;2023-02-12T05:49:00;7.30;47.80
24217;DHT22;12356;49.386;8.688;2023-02-12T05:51:30;7.30;47.40
24217;DHT22;12356;49.386;8.688;2023-02-12T05:54:03;7.30;47.10
24217;DHT22;12356;49.386;8.688;2023-02-12T05:56:37;7.30;46.90
24217;DHT22;12356;49.386;8.688;2023-02-12T05:59:17;7.30;47.00
24217;DHT22;12356;49.386;8.688;2023-02-12T06:01:50;7.20;47.00
24217;DHT22;12356;49.386;8.688;2023-02-12T06:04:24;7.10;46.90
24217;DHT22;12356;49.386;8.688;2023-02-12T06:06:55;7.10;47.70
24217;DHT22;12356;49.386;8.688;2023-02-12T06:09:26;7.10;48.30
24217;DHT22;12356;49.386;8.688;2023-02-12T06:11:56;7.10;48.50
24217;DHT22;12356;49.386;8.688;2023-02-12T06:14:27;7.10;48.80
24217;DHT22;12356;49.386;8.688;2023-02-12T06:16:58;7.10;48.80
24217;DHT22;12356;49.386;8.688;2023-02-12T06:19:29;7.00;49.00
24217;DHT22;12356;49.386;8.688;2023-02-12T06:21:59;7.10;49.30
24217;DHT22;12356;49.386;8.688;2023-02-12T06:24:30;7.10;49.00
24217;DHT22;12356;49.386;8.688;2023-02-12T06:27:01;7.10;48.80
24217;DHT22;12356;49.386;8.688;2023-02-12T06:29:31;7.10;48.60
24217;DHT22;12356;49.386;8.688;2023-02-12T06:32:02;7.10;48.30
24217;DHT22;12356;49.386;8.688;2023-02-12T06:34:33;7.10;48.50
24217;DHT22;12356;49.386;8.688;2023-02-12T06:37:03;7.10;48.70
24217;DHT22;12356;49.386;8.688;2023-02-12T06:39:34;7.10;48.20
24217;DHT22;12356;49.386;8.688;2023-02-12T06:42:04;7.10;48.70
24217;DHT22;12356;49.386;8.688;2023-02-12T06:44:35;7.10;48.40
24217;DHT22;12356;49.386;8.688;2023-02-12T06:47:05;7.10;48.40
24217;DHT22;12356;49.386;8.688;2023-02-12T06:49:36;7.10;49.30
24217;DHT22;12356;49.386;8.688;2023-02-12T06:52:07;7.20;48.50
24217;DHT22;12356;49.386;8.688;2023-02-12T06:54:37;7.20;48.30
24217;DHT22;12356;49.386;8.688;2023-02-12T06:57:08;7.10;48.50
24217;DHT22;12356;49.386;8.688;2023-02-12T06:59:39;7.10;48.80
24217;DHT22;12356;49.386;8.688;2023-02-12T07:02:10;7.20;48.60
24217;DHT22;12356;49.386;8.688;2023-02-12T07:04:41;7.20;48.70
24217;DHT22;12356;49.386;8.688;2023-02-12T07:07:11;7.20;49.10
24217;DHT22;12356;49.386;8.688;2023-02-12T07:09:42;7.20;49.60
24217;DHT22;12356;49.386;8.688;2023-02-12T07:12:12;7.20;49.10
24217;DHT22;12356;49.386;8.688;2023-02-12T07:14:43;7.20;49.80
24217;DHT22;12356;49.386;8.688;2023-02-12T07:17:14;7.30;50.10
24217;DHT22;12356;49.386;8.688;2023-02-12T07:19:44;7.30;49.80
24217;DHT22;12356;49.386;8.688;2023-02-12T07:22:15;7.30;49.70
24217;DHT22;12356;49.386;8.688;2023-02-12T07:24:45;7.40;49.60
24217;DHT22;12356;49.386;8.688;2023-02-12T07:27:16;7.40;49.10
24217;DHT22;12356;49.386;8.688;2023-02-12T07:29:47;7.40;48.90
24217;DHT22;12356;49.386;8.688;2023-02-12T07:32:18;7.40;49.10
24217;DHT22;12356;49.386;8.688;2023-02-12T07:34:48;7.40;48.80
24217;DHT22;12356;49.386;8.688;2023-02-12T07:37:19;7.40;48.80
24217;DHT22;12356;49.386;8.688;2023-02-12T07:39:52;7.30;48.70
24217;DHT22;12356;49.386;8.688;2023-02-12T07:42:22;7.30;49.20
24217;DHT22;12356;49.386;8.688;2023-02-12T07:44:53;7.30;49.30
24217;DHT22;12356;49.386;8.688;2023-02-12T07:47:23;7.40;49.70
24217;DHT22;12356;49.386;8.688;2023-02-12T07:49:54;7.50;49.70
24217;DHT22;12356;49.386;8.688;2023-02-12T07:52:25;7.50;49.30
24217;DHT22;12356;49.386;8.688;2023-02-12T07:54:55;7.60;48.80
24217;DHT22;12356;49.386;8.688;2023-02-12T07:57:26;7.70;48.40
24217;DHT22;12356;49.386;8.688;2023-02-12T07:59:56;7.70;47.30
24217;DHT22;12356;49.386;8.688;2023-02-12T08:02:27;7.70;47.10
24217;DHT22;12356;49.386;8.688;2023-02-12T08:04:57;7.70;47.10
24217;DHT22;12356;49.386;8.688;2023-02-12T08:07:28;7.70;47.10
24217;DHT22;12356;49.386;8.688;2023-02-12T08:09:59;7.70;47.40
24217;DHT22;12356;49.386;8.688;2023-02-12T08:12:29;7.80;47.70
24217;DHT22;12356;49.386;8.688;2023-02-12T08:15:00;7.90;47.20
24217;DHT22;12356;49.386;8.688;2023-02-12T08:17:30;7.90;47.40
24217;DHT22;12356;49.386;8.688;2023-02-12T08:20:01;8.00;47.10
24217;DHT22;12356;49.386;8.688;2023-02-12T08:22:31;8.00;47.00
24217;DHT22;12356;49.386;8.688;2023-02-12T08:25:02;8.00;46.70
24217;DHT22;12356;49.386;8.688;2023-02-12T08:27:32;8.10;46.50
24217;DHT22;12356;49.386;8.688;2023-02-12T08:30:03;8.10;46.70
24217;DHT22;12356;49.386;8.688;2023-02-12T08:32:33;8.10;47.20
24217;DHT22;12356;49.386;8.688;2023-02-12T08:35:04;8.10;47.80
24217;DHT22;12356;49.386;8.688;2023-02-12T08:37:35;8.10;48.10
24217;DHT22;12356;49.386;8.688;2023-02-12T08:40:06;8.10;47.60
24217;DHT22;12356;49.386;8.688;2023-02-12T08:42:36;8.20;47.30
24217;DHT22;12356;49.386;8.688;2023-02-12T08:45:07;8.20;47.00
24217;DHT22;12356;49.386;8.688;2023-02-12T08:47:38;8.20;47.20
24217;DHT22;12356;49.386;8.688;2023-02-12T08:50:09;8.20;47.40
24217;DHT22;12356;49.386;8.688;2023-02-12T08:52:39;8.30;47.90
24217;DHT22;12356;49.386;8.688;2023-02-12T08:55:10;8.30;47.70
24217;DHT22;12356;49.386;8.688;2023-02-12T08:57:41;8.40;46.50
24217;DHT22;12356;49.386;8.688;2023-02-12T09:00:12;8.40;45.90
24217;DHT22;12356;49.386;8.688;2023-02-12T09:02:42;8.50;45.70
24217;DHT22;12356;49.386;8.688;2023-02-12T09:05:13;8.50;45.70
24217;DHT22;12356;49.386;8.688;2023-02-12T09:07:43;8.50;45.30
24217;DHT22;12356;49.386;8.688;2023-02-12T09:10:14;8.60;45.60
24217;DHT22;12356;49.386;8.688;2023-02-12T09:12:45;8.60;46.20
24217;DHT22;12356;49.386;8.688;2023-02-12T09:15:15;8.60;45.10
24217;DHT22;12356;49.386;8.688;2023-02-12T09:17:46;8.60;45.50
24217;DHT22;12356;49.386;8.688;2023-02-12T09:20:16;8.70;46.10
24217;DHT22;12356;49.386;8.688;2023-02-12T09:22:47;8.60;45.50
24217;DHT22;12356;49.386;8.688;2023-02-12T09:25:17;8.60;44.80
24217;DHT22;12356;49.386;8.688;2023-02-12T09:27:48;8.70;44.80
24217;DHT22;12356;49.386;8.688;2023-02-12T09:30:19;8.70;45.00
24217;DHT22;12356;49.386;8.688;2023-02-12T09:32:49;8.80;45.00
24217;DHT22;12356;49.386;8.688;2023-02-12T09:35:20;8.80;45.20
24217;DHT22;12356;49.386;8.688;2023-02-12T09:37:52;8.80;44.50
24217;DHT22;12356;49.386;8.688;2023-02-12T09:40:43;8.80;44.20
24217;DHT22;12356;49.386;8.688;2023-02-12T09:43:49;8.80;43.70
24217;DHT22;12356;49.386;8.688;2023-02-12T09:46:31;8.80;44.30
24217;DHT22;12356;49.386;8.688;2023-02-12T09:51:54;8.90;43.60
24217;DHT22;12356;49.386;8.688;2023-02-12T09:54:33;8.90;44.20
24217;DHT22;12356;49.386;8.688;2023-02-12T09:57:18;8.90;44.10
24217;DHT22;12356;49.386;8.688;2023-02-12T09:59:53;8.90;43.80
24217;DHT22;12356;49.386;8.688;2023-02-12T10:02:25;9.00;43.50
24217;DHT22;12356;49.386;8.688;2023-02-12T10:04:56;9.00;43.40
24217;DHT22;12356;49.386;8.688;2023-02-12T10:10:50;9.10;39.80
24217;DHT22;12356;49.386;8.688;2023-02-12T10:13:35;9.20;39.40
24217;DHT22;12356;49.386;8.688;2023-02-12T10:22:27;9.20;40.30
24217;DHT22;12356;49.386;8.688;2023-02-12T10:25:20;9.30;40.00
24217;DHT22;12356;49.386;8.688;2023-02-12T10:27:56;9.30;40.30
24217;DHT22;12356;49.386;8.688;2023-02-12T10:30:41;9.20;41.00
24217;DHT22;12356;49.386;8.688;2023-02-12T10:33:19;9.20;41.20
24217;DHT22;12356;49.386;8.688;2023-02-12T10:38:50;9.20;41.00
24217;DHT22;12356;49.386;8.688;2023-02-12T10:41:24;9.30;41.10
24217;DHT22;12356;49.386;8.688;2023-02-12T10:43:56;9.40;39.80
24217;DHT22;12356;49.386;8.688;2023-02-12T10:46:29;9.40;40.00
24217;DHT22;12356;49.386;8.688;2023-02-12T10:49:01;9.40;39.90
24217;DHT22;12356;49.386;8.688;2023-02-12T10:51:57;9.50;39.00
24217;DHT22;12356;49.386;8.688;2023-02-12T10:54:37;9.50;39.20
24217;DHT22;12356;49.386;8.688;2023-02-12T10:57:20;9.50;39.10
24217;DHT22;12356;49.386;8.688;2023-02-12T10:59:55;9.50;39.10
24217;DHT22;12356;49.386;8.688;2023-02-12T11:02:29;9.50;38.50
24217;DHT22;12356;49.386;8.688;2023-02-12T11:05:21;9.60;37.10
24217;DHT22;12356;49.386;8.688;2023-02-12T11:07:52;9.60;36.70
24217;DHT22;12356;49.386;8.688;2023-02-12T11:10:28;9.60;37.80
24217;DHT22;12356;49.386;8.688;2023-02-12T11:13:00;9.70;36.50
24217;DHT22;12356;49.386;8.688;2023-02-12T11:15:35;9.60;36.20
24217;DHT22;12356;49.386;8.688;2023-02-12T11:18:07;9.70;37.20
24217;DHT22;12356;49.386;8.688;2023-02-12T11:20:49;9.70;37.20
24217;DHT22;12356;49.386;8.688;2023-02-12T11:26:05;9.70;36.50
24217;DHT22;12356;49.386;8.688;2023-02-12T11:28:36;9.70;36.30
24217;DHT22;12356;49.386;8.688;2023-02-12T11:33:43;9.70;36.10
24217;DHT22;12356;49.386;8.688;2023-02-12T11:36:24;9.70;34.50
24217;DHT22;12356;49.386;8.688;2023-02-12T11:38:56;9.80;35.80
24217;DHT22;12356;49.386;8.688;2023-02-12T11:44:11;9.80;34.80
24217;DHT22;12356;49.386;8.688;2023-02-12T11:47:10;9.80;34.20
24217;DHT22;12356;49.386;8.688;2023-02-12T11:49:50;9.90;34.30
24217;DHT22;12356;49.386;8.688;2023-02-12T11:52:24;9.90;35.00
24217;DHT22;12356;49.386;8.688;2023-02-12T11:54:59;9.90;33.10
24217;DHT22;12356;49.386;8.688;2023-02-12T11:57:43;9.90;34.10
24217;DHT22;12356;49.386;8.688;2023-02-12T12:00:37;9.90;34.50
24217;DHT22;12356;49.386;8.688;2023-02-12T12:03:24;9.90;34.70
24217;DHT22;12356;49.386;8.688;2023-02-12T12:06:20;9.90;33.70
24217;DHT22;12356;49.386;8.688;2023-02-12T12:09:14;10.00;32.80
24217;DHT22;12356;49.386;8.688;2023-02-12T12:12:30;10.00;30.70
24217;DHT22;12356;49.386;8.688;2023-02-12T12:14:50;10.00;31.60
24217;DHT22;12356;49.386;8.688;2023-02-12T12:17:45;10.00;31.90
24217;DHT22;12356;49.386;8.688;2023-02-12T12:20:44;10.00;32.30
24217;DHT22;12356;49.386;8.688;2023-02-12T12:23:20;10.00;31.80
24217;DHT22;12356;49.386;8.688;2023-02-12T12:25:57;10.00;32.30
24217;DHT22;12356;49.386;8.688;2023-02-12T12:28:45;10.10;31.70
24217;DHT22;12356;49.386;8.688;2023-02-12T12:31:28;10.10;30.00
24217;DHT22;12356;49.386;8.688;2023-02-12T12:34:21;10.10;29.90
24217;DHT22;12356;49.386;8.688;2023-02-12T12:37:23;10.10;29.40
24217;DHT22;12356;49.386;8.688;2023-02-12T12:40:39;10.10;29.50
24217;DHT22;12356;49.386;8.688;2023-02-12T12:43:18;10.00;29.40
24217;DHT22;12356;49.386;8.688;2023-02-12T12:48:50;10.10;29.60
24217;DHT22;12356;49.386;8.688;2023-02-12T12:57:48;10.10;30.00
24217;DHT22;12356;49.386;8.688;2023-02-12T13:00:55;10.20;30.20
24217;DHT22;12356;49.386;8.688;2023-02-12T13:04:00;10.30;30.50
24217;DHT22;12356;49.386;8.688;2023-02-12T13:09:56;10.40;29.10
24217;DHT22;12356;49.386;8.688;2023-02-12T13:16:14;10.40;29.00
24217;DHT22;12356;49.386;8.688;2023-02-12T13:21:37;10.50;28.90
24217;DHT22;12356;49.386;8.688;2023-02-12T13:27:02;10.50;28.40
24217;DHT22;12356;49.386;8.688;2023-02-12T13:29:38;10.60;29.00
24217;DHT22;12356;49.386;8.688;2023-02-12T13:32:26;10.60;28.70
24217;DHT22;12356;49.386;8.688;2023-02-12T13:34:58;10.70;29.20
24217;DHT22;12356;49.386;8.688;2023-02-12T13:40:05;10.70;29.00
24217;DHT22;12356;49.386;8.688;2023-02-12T13:45:29;10.90;27.00
24217;DHT22;12356;49.386;8.688;2023-02-12T13:51:04;11.00;28.00
24217;DHT22;12356;49.386;8.688;2023-02-12T13:56:50;11.10;26.70
24217;DHT22;12356;49.386;8.688;2023-02-12T14:05:26;11.10;25.00
24217;DHT22;12356;49.386;8.688;2023-02-12T14:08:00;11.20;25.20
24217;DHT22;12356;49.386;8.688;2023-02-12T14:10:40;11.20;24.80
24217;DHT22;12356;49.386;8.688;2023-02-12T14:15:53;11.20;25.30
24217;DHT22;12356;49.386;8.688;2023-02-12T14:18:33;11.20;25.30
24217;DHT22;12356;49.386;8.688;2023-02-12T14:23:45;11.20;25.70
24217;DHT22;12356;49.386;8.688;2023-02-12T14:26:20;11.20;26.10
24217;DHT22;12356;49.386;8.688;2023-02-12T14:29:02;11.20;26.00
24217;DHT22;12356;49.386;8.688;2023-02-12T14:31:37;11.20;26.10
24217;DHT22;12356;49.386;8.688;2023-02-12T14:36:40;11.30;26.70
24217;DHT22;12356;49.386;8.688;2023-02-12T14:44:54;11.40;25.50
24217;DHT22;12356;49.386;8.688;2023-02-12T14:50:04;11.50;25.50
24217;DHT22;12356;49.386;8.688;2023-02-12T14:52:39;11.50;24.70
24217;DHT22;12356;49.386;8.688;2023-02-12T14:55:19;11.50;25.20
24217;DHT22;12356;49.386;8.688;2023-02-12T14:57:58;11.60;24.30
24217;DHT22;12356;49.386;8.688;2023-02-12T15:00:39;11.50;25.00
24217;DHT22;12356;49.386;8.688;2023-02-12T15:06:02;11.50;25.20
24217;DHT22;12356;49.386;8.688;2023-02-12T15:11:38;11.40;25.70
24217;DHT22;12356;49.386;8.688;2023-02-12T15:14:23;11.40;25.90
24217;DHT22;12356;49.386;8.688;2023-02-12T15:17:06;11.40;26.30
24217;DHT22;12356;49.386;8.688;2023-02-12T15:19:55;11.30;26.30
24217;DHT22;12356;49.386;8.688;2023-02-12T15:22:31;11.30;26.70
24217;DHT22;12356;49.386;8.688;2023-02-12T15:28:10;11.30;25.40
24217;DHT22;12356;49.386;8.688;2023-02-12T15:30:46;11.30;25.90
24217;DHT22;12356;49.386;8.688;2023-02-12T15:33:29;11.30;25.80
24217;DHT22;12356;49.386;8.688;2023-02-12T15:36:01;11.20;25.80
24217;DHT22;12356;49.386;8.688;2023-02-12T15:38:35;11.20;26.00
24217;DHT22;12356;49.386;8.688;2023-02-12T15:41:06;11.10;26.40
24217;DHT22;12356;49.386;8.688;2023-02-12T15:43:39;11.00;27.10
24217;DHT22;12356;49.386;8.688;2023-02-12T15:46:16;11.00;27.80
24217;DHT22;12356;49.386;8.688;2023-02-12T15:48:47;11.00;27.80
24217;DHT22;12356;49.386;8.688;2023-02-12T15:51:32;11.00;27.30
24217;DHT22;12356;49.386;8.688;2023-02-12T15:54:05;10.90;27.20
24217;DHT22;12356;49.386;8.688;2023-02-12T15:56:39;10.90;27.30
24217;DHT22;12356;49.386;8.688;2023-02-12T15:59:21;10.90;27.60
24217;DHT22;12356;49.386;8.688;2023-02-12T16:02:01;10.90;27.70
24217;DHT22;12356;49.386;8.688;2023-02-12T16:04:33;10.80;28.00
24217;DHT22;12356;49.386;8.688;2023-02-12T16:07:06;10.80;28.10
24217;DHT22;12356;49.386;8.688;2023-02-12T16:09:38;10.80;28.10
24217;DHT22;12356;49.386;8.688;2023-02-12T16:12:13;10.80;28.00
24217;DHT22;12356;49.386;8.688;2023-02-12T16:14:57;10.70;28.10
24217;DHT22;12356;49.386;8.688;2023-02-12T16:17:32;10.70;28.60
24217;DHT22;12356;49.386;8.688;2023-02-12T16:20:18;10.60;29.10
24217;DHT22;12356;49.386;8.688;2023-02-12T16:22:50;10.60;29.50
24217;DHT22;12356;49.386;8.688;2023-02-12T16:25:29;10.50;30.00
24217;DHT22;12356;49.386;8.688;2023-02-12T16:28:14;10.50;30.20
24217;DHT22;12356;49.386;8.688;2023-02-12T16:30:47;10.40;30.90
24217;DHT22;12356;49.386;8.688;2023-02-12T16:33:33;10.40;31.10
24217;DHT22;12356;49.386;8.688;2023-02-12T16:36:28;10.40;31.50
24217;DHT22;12356;49.386;8.688;2023-02-12T16:39:04;10.40;31.50
24217;DHT22;12356;49.386;8.688;2023-02-12T16:41:52;10.30;31.40
24217;DHT22;12356;49.386;8.688;2023-02-12T16:44:25;10.30;31.90
24217;DHT22;12356;49.386;8.688;2023-02-12T16:46:59;10.30;32.00
24217;DHT22;12356;49.386;8.688;2023-02-12T16:49:30;10.20;32.20
24217;DHT22;12356;49.386;8.688;2023-02-12T16:52:19;10.10;32.70
24217;DHT22;12356;49.386;8.688;2023-02-12T16:54:52;10.00;33.30
24217;DHT22;12356;49.386;8.688;2023-02-12T16:57:22;9.90;34.80
24217;DHT22;12356;49.386;8.688;2023-02-12T16:59:53;9.80;35.90
24217;DHT22;12356;49.386;8.688;2023-02-12T17:02:23;9.70;36.50
24217;DHT22;12356;49.386;8.688;2023-02-12T17:04:54;9.60;36.80
24217;DHT22;12356;49.386;8.688;2023-02-12T17:07:25;9.50;37.50
24217;DHT22;12356;49.386;8.688;2023-02-12T17:10:00;9.40;38.20
24217;DHT22;12356;49.386;8.688;2023-02-12T17:12:31;9.40;38.10
24217;DHT22;12356;49.386;8.688;2023-02-12T17:15:03;9.30;38.00
24217;DHT22;12356;49.386;8.688;2023-02-12T17:17:34;9.20;38.20
24217;DHT22;12356;49.386;8.688;2023-02-12T17:20:05;9.20;38.50
24217;DHT22;12356;49.386;8.688;2023-02-12T17:22:36;9.10;38.40
24217;DHT22;12356;49.386;8.688;2023-02-12T17:25:06;9.00;39.50
24217;DHT22;12356;49.386;8.688;2023-02-12T17:27:37;8.90;39.80
24217;DHT22;12356;49.386;8.688;2023-02-12T17:30:09;8.90;40.30
24217;DHT22;12356;49.386;8.688;2023-02-12T17:32:40;8.80;40.50
24217;DHT22;12356;49.386;8.688;2023-02-12T17:35:11;8.70;40.40
24217;DHT22;12356;49.386;8.688;2023-02-12T17:37:42;8.70;40.70
24217;DHT22;12356;49.386;8.688;2023-02-12T17:40:12;8.70;41.10
24217;DHT22;12356;49.386;8.688;2023-02-12T17:42:43;8.50;41.10
24217;DHT22;12356;49.386;8.688;2023-02-12T17:45:14;8.50;41.90
24217;DHT22;12356;49.386;8.688;2023-02-12T17:47:44;8.50;42.50
24217;DHT22;12356;49.386;8.688;2023-02-12T17:50:15;8.40;42.40
24217;DHT22;12356;49.386;8.688;2023-02-12T17:52:47;8.30;42.70
24217;DHT22;12356;49.386;8.688;2023-02-12T17:55:17;8.30;42.90
24217;DHT22;12356;49.386;8.688;2023-02-12T17:57:53;8.20;43.20
24217;DHT22;12356;49.386;8.688;2023-02-12T18:00:24;8.20;44.00
24217;DHT22;12356;49.386;8.688;2023-02-12T18:02:54;8.20;43.90
24217;DHT22;12356;49.386;8.688;2023-02-12T18:05:25;8.10;44.30
24217;DHT22;12356;49.386;8.688;2023-02-12T18:07:56;8.00;45.40
24217;DHT22;12356;49.386;8.688;2023-02-12T18:10:26;8.00;45.10
24217;DHT22;12356;49.386;8.688;2023-02-12T18:12:57;8.00;46.20
24217;DHT22;12356;49.386;8.688;2023-02-12T18:15:27;7.90;45.90
24217;DHT22;12356;49.386;8.688;2023-02-12T18:17:58;8.00;46.20
24217;DHT22;12356;49.386;8.688;2023-02-12T18:20:28;8.00;46.20
24217;DHT22;12356;49.386;8.688;2023-02-12T18:22:59;7.90;46.30
24217;DHT22;12356;49.386;8.688;2023-02-12T18:25:30;7.90;46.50
24217;DHT22;12356;49.386;8.688;2023-02-12T18:28:00;7.80;46.80
24217;DHT22;12356;49.386;8.688;2023-02-12T18:30:31;7.80;46.80
24217;DHT22;12356;49.386;8.688;2023-02-12T18:33:02;7.80;46.40
24217;DHT22;12356;49.386;8.688;2023-02-12T18:35:32;7.80;46.80